createdAt,value
2023-02-14T00:18:25.995Z,19.3
2023-02-14T00:48:26.011Z,19.3
2023-02-14T01:18:25.983Z,19.1
2023-02-14T01:48:25.986Z,19.1
2023-02-14T02:18:26.014Z,19.0
2023-02-14T02:48:26.022Z,18.8
2023-02-14T03:18:26.012Z,18.8
2023-02-14T03:48:25.988Z,18.7
2023-02-14T04:18:26.010Z,18.7
2023-02-14T04:48:26.029Z,18.8
2023-02-14T05:18:26.008Z,19.1
2023-02-14T05:48:25.995Z,19.2
2023-02-14T06:18:25.994Z,19.4
2023-02-14T06:48:25.999Z,19.5
2023-02-14T07:18:26.026Z,19.7
2023-02-14T07:48:25.735Z,19.7
2023-02-14T08:18:26.127Z,19.8
2023-02-14T08:48:26.004Z,20.1
2023-02-14T09:18:26.008Z,20.2
2023-02-14T09:48:26.046Z,20.3
2023-02-14T10:18:25.998Z,20.3
2023-02-14T10:48:25.988Z,20.3
2023-02-14T11:18:26.032Z,20.4
2023-02-14T11:48:26.008Z,20.3
2023-02-14T12:18:25.961Z,20.2
2023-02-14T12:48:25.989Z,20.2
2023-02-14T13:18:25.981Z,20.1
2023-02-14T13:48:25.969Z,20.2
2023-02-14T14:18:25.979Z,20.3
2023-02-14T14:48:25.962Z,20.5
2023-02-14T15:18:26.004Z,20.5
2023-02-14T15:48:26.023Z,20.6
2023-02-14T16:18:25.941Z,20.6
2023-02-14T16:48:25.963Z,20.6
2023-02-14T17:18:25.938Z,20.6
2023-02-14T17:48:25.973Z,20.7
2023-02-14T18:18:25.949Z,20.8
2023-02-14T18:48:25.944Z,20.7
2023-02-14T19:18:25.974Z,20.6
2023-02-14T19:48:26.102Z,20.5
2023-02-14T20:18:25.946Z,20.3
2023-02-14T20:48:25.654Z,20.3
2023-02-14T21:18:25.916Z,20.0
2023-02-14T21:48:25.990Z,19.8
2023-02-14T22:18:26.054Z,19.6
2023-02-14T22:48:25.930Z,19.4
2023-02-14T23:18:25.947Z,19.3
2023-02-14T23:48:25.912Z,19.2
